Time;durP1;ratioP1;P1;durP2;ratioP2;P2;SDS_P1;SDS_P2;PMS_P1;PMS_P2;Temp;Humidity;BMP_temperature;BMP_pressure;BME280_temperature;BME280_humidity;BME280_pressure;Samples;Min_cycle;Max_cycle;Signal;HPM_P1;HPM_P2
2022/12/07 00:01:25;;;;;;;31.35;20.42;;;;;;;;;;755095;186;920238;-60
2022/12/07 00:03:51;;;;;;;29.20;20.57;;;;;;;;;;728448;189;918848;-59
2022/12/07 00:06:17;;;;;;;31.67;21.00;;;;;;;;;;742118;187;919474;-62
2022/12/07 00:08:43;;;;;;;28.87;18.63;;;;;;;;;;745132;187;918742;-62
2022/12/07 00:11:08;;;;;;;28.23;17.63;;;;;;;;;;737443;188;932262;-63
2022/12/07 00:13:34;;;;;;;26.40;17.02;;;;;;;;;;742178;187;919010;-62
2022/12/07 00:16:02;;;;;;;24.87;17.12;;;;;;;;;;749008;186;919344;-63
2022/12/07 00:18:27;;;;;;;23.50;16.30;;;;;;;;;;746130;183;919574;-60
2022/12/07 00:20:53;;;;;;;29.57;15.90;;;;;;;;;;747281;186;919363;-59
2022/12/07 00:23:19;;;;;;;21.17;14.23;;;;;;;;;;758512;186;715196;-62
2022/12/07 00:25:45;;;;;;;24.33;16.17;;;;;;;;;;749032;186;816865;-63
2022/12/07 00:28:11;;;;;;;19.30;14.00;;;;;;;;;;743142;186;914738;-63
2022/12/07 00:30:37;;;;;;;25.37;16.13;;;;;;;;;;740032;186;913361;-59
2022/12/07 00:33:03;;;;;;;21.93;15.40;;;;;;;;;;752026;186;950059;-60
2022/12/07 00:35:28;;;;;;;22.00;16.23;;;;;;;;;;734887;187;918251;-63
2022/12/07 00:37:54;;;;;;;25.53;16.53;;;;;;;;;;733130;190;819559;-63
2022/12/07 00:40:20;;;;;;;25.13;17.37;;;;;;;;;;753897;186;816718;-64
2022/12/07 00:42:46;;;;;;;25.87;17.17;;;;;;;;;;736725;186;919478;-63
2022/12/07 00:45:12;;;;;;;22.53;15.40;;;;;;;;;;734682;190;918099;-63
2022/12/07 00:47:38;;;;;;;19.67;14.15;;;;;;;;;;733898;190;1020970;-61
2022/12/07 00:50:04;;;;;;;22.33;14.80;;;;;;;;;;746735;186;918727;-60
2022/12/07 00:52:30;;;;;;;24.43;14.90;;;;;;;;;;732899;186;919382;-62
2022/12/07 00:54:56;;;;;;;22.20;15.30;;;;;;;;;;728478;190;918403;-61
2022/12/07 00:57:21;;;;;;;25.13;15.50;;;;;;;;;;751541;186;919193;-62
2022/12/07 00:59:47;;;;;;;21.17;15.03;;;;;;;;;;742418;186;921185;-62
2022/12/07 01:02:13;;;;;;;24.00;15.52;;;;;;;;;;748358;186;910866;-59
2022/12/07 01:04:39;;;;;;;27.50;15.27;;;;;;;;;;734741;186;920047;-61
2022/12/07 01:07:05;;;;;;;26.40;15.50;;;;;;;;;;744752;186;817245;-63
2022/12/07 01:09:31;;;;;;;19.80;14.27;;;;;;;;;;735943;190;919299;-58
2022/12/07 01:11:56;;;;;;;21.37;14.07;;;;;;;;;;730614;190;929490;-62
2022/12/07 01:14:22;;;;;;;21.65;15.35;;;;;;;;;;752364;186;825912;-62
2022/12/07 01:16:48;;;;;;;18.40;13.67;;;;;;;;;;753397;186;865554;-61
2022/12/07 01:19:14;;;;;;;27.77;15.07;;;;;;;;;;752706;186;1022671;-61
2022/12/07 01:21:40;;;;;;;18.13;13.07;;;;;;;;;;745770;186;906202;-59
2022/12/07 01:24:06;;;;;;;21.67;13.30;;;;;;;;;;736966;187;976218;-60
2022/12/07 01:26:32;;;;;;;24.03;14.73;;;;;;;;;;741739;186;888291;-61
2022/12/07 01:29:00;;;;;;;21.60;14.73;;;;;;;;;;749592;186;909711;-61
2022/12/07 01:31:24;;;;;;;24.20;15.37;;;;;;;;;;745583;186;916637;-59
2022/12/07 01:33:50;;;;;;;18.87;13.00;;;;;;;;;;733410;191;915072;-62
2022/12/07 01:36:17;;;;;;;24.37;14.67;;;;;;;;;;739191;190;859148;-63
2022/12/07 01:38:43;;;;;;;23.47;14.43;;;;;;;;;;744292;186;920180;-59
2022/12/07 01:41:09;;;;;;;24.20;14.57;;;;;;;;;;733684;189;918416;-60
2022/12/07 01:43:35;;;;;;;22.55;15.57;;;;;;;;;;745711;187;922601;-59
2022/12/07 01:46:01;;;;;;;22.80;15.00;;;;;;;;;;746611;187;921925;-59
2022/12/07 01:48:27;;;;;;;18.70;11.55;;;;;;;;;;745239;186;919980;-61
2022/12/07 01:50:53;;;;;;;18.10;11.83;;;;;;;;;;737723;187;920270;-63
2022/12/07 01:53:19;;;;;;;23.03;15.23;;;;;;;;;;751370;186;816495;-60
2022/12/07 01:55:45;;;;;;;22.37;13.50;;;;;;;;;;746128;186;918549;-59
2022/12/07 01:58:11;;;;;;;20.73;14.53;;;;;;;;;;741042;186;918807;-61
2022/12/07 02:00:37;;;;;;;23.90;13.80;;;;;;;;;;742225;186;919460;-61
2022/12/07 02:03:04;;;;;;;26.67;15.67;;;;;;;;;;749206;186;918117;-62
2022/12/07 02:05:30;;;;;;;22.33;14.23;;;;;;;;;;735575;190;919409;-60
2022/12/07 02:07:56;;;;;;;18.83;14.20;;;;;;;;;;734170;190;923508;-60
2022/12/07 02:10:25;;;;;;;19.30;12.48;;;;;;;;;;748494;186;918858;-63
2022/12/07 02:12:51;;;;;;;23.80;13.97;;;;;;;;;;745764;186;915649;-60
2022/12/07 02:15:16;;;;;;;22.33;14.87;;;;;;;;;;749510;186;920433;-60
2022/12/07 02:17:52;;;;;;;23.05;15.65;;;;;;;;;;750162;186;918426;-61
2022/12/07 02:20:28;;;;;;;16.90;13.30;;;;;;;;;;736352;191;919181;-63
2022/12/07 02:23:13;;;;;;;21.10;13.75;;;;;;;;;;753657;186;919084;-63
2022/12/07 02:25:39;;;;;;;21.77;13.50;;;;;;;;;;746056;187;918589;-63
2022/12/07 02:28:23;;;;;;;23.93;12.87;;;;;;;;;;747212;186;915392;-60
2022/12/07 02:30:49;;;;;;;21.87;13.97;;;;;;;;;;749734;187;813597;-62
2022/12/07 02:33:15;;;;;;;21.30;13.47;;;;;;;;;;737273;188;1014774;-63
2022/12/07 02:35:41;;;;;;;20.23;13.13;;;;;;;;;;745183;186;914272;-61
2022/12/07 02:38:07;;;;;;;24.27;13.90;;;;;;;;;;737061;188;853042;-60
2022/12/07 02:40:33;;;;;;;20.77;12.80;;;;;;;;;;738896;186;916622;-60
2022/12/07 02:43:02;;;;;;;16.97;12.50;;;;;;;;;;734066;190;919156;-61
2022/12/07 02:45:28;;;;;;;18.87;12.97;;;;;;;;;;753211;186;919082;-63
2022/12/07 02:47:54;;;;;;;17.67;11.33;;;;;;;;;;739532;190;919969;-61
2022/12/07 02:50:19;;;;;;;19.57;12.67;;;;;;;;;;740880;190;916709;-61
2022/12/07 02:52:45;;;;;;;16.90;11.30;;;;;;;;;;755025;186;919308;-61
2022/12/07 02:55:11;;;;;;;17.73;12.13;;;;;;;;;;745876;186;818636;-63
2022/12/07 02:57:39;;;;;;;16.40;12.23;;;;;;;;;;737354;186;920297;-60
2022/12/07 03:00:05;;;;;;;17.08;11.70;;;;;;;;;;738815;190;820768;-61
2022/12/07 03:02:31;;;;;;;16.57;11.00;;;;;;;;;;753609;186;715112;-63
2022/12/07 03:05:14;;;;;;;21.10;12.10;;;;;;;;;;750287;187;919248;-62
2022/12/07 03:07:43;;;;;;;15.77;11.30;;;;;;;;;;735255;186;932159;-60
2022/12/07 03:10:09;;;;;;;15.10;10.37;;;;;;;;;;748773;186;818557;-64
2022/12/07 03:12:36;;;;;;;16.60;10.83;;;;;;;;;;757219;186;875745;-64
2022/12/07 03:15:01;;;;;;;17.67;11.30;;;;;;;;;;739039;190;919419;-64
2022/12/07 03:17:27;;;;;;;14.95;10.82;;;;;;;;;;737061;190;924510;-61
2022/12/07 03:19:53;;;;;;;16.17;10.77;;;;;;;;;;746157;186;918822;-64
2022/12/07 03:22:19;;;;;;;14.33;10.63;;;;;;;;;;742141;186;918432;-61
2022/12/07 03:24:46;;;;;;;14.87;9.43;;;;;;;;;;746702;186;1018631;-60
2022/12/07 03:27:18;;;;;;;12.80;9.17;;;;;;;;;;737394;187;1016286;-62
2022/12/07 03:29:44;;;;;;;15.47;9.70;;;;;;;;;;718698;194;917780;-64
2022/12/07 03:32:11;;;;;;;16.80;9.00;;;;;;;;;;723537;193;918080;-64
2022/12/07 03:34:37;;;;;;;10.77;8.70;;;;;;;;;;745323;187;914398;-64
2022/12/07 03:37:05;;;;;;;15.07;9.73;;;;;;;;;;751712;186;919422;-61
2022/12/07 03:39:31;;;;;;;13.40;8.97;;;;;;;;;;744300;186;820787;-61
2022/12/07 03:41:57;;;;;;;12.90;8.20;;;;;;;;;;735321;188;1019390;-61
2022/12/07 03:44:22;;;;;;;12.93;8.83;;;;;;;;;;720821;194;915999;-64
2022/12/07 03:46:50;;;;;;;21.80;9.40;;;;;;;;;;733939;191;825074;-64
2022/12/07 03:49:19;;;;;;;16.30;10.20;;;;;;;;;;739403;188;918908;-61
2022/12/07 03:51:49;;;;;;;15.23;9.97;;;;;;;;;;745422;186;917568;-60
2022/12/07 03:54:17;;;;;;;13.93;9.10;;;;;;;;;;741015;187;919763;-61
2022/12/07 03:56:43;;;;;;;12.43;9.47;;;;;;;;;;753098;186;917628;-61
2022/12/07 03:59:08;;;;;;;15.40;10.40;;;;;;;;;;749466;186;815611;-64
2022/12/07 04:01:34;;;;;;;15.05;9.73;;;;;;;;;;734899;187;918768;-60
2022/12/07 04:04:00;;;;;;;13.93;9.38;;;;;;;;;;729117;191;916859;-61
2022/12/07 04:06:26;;;;;;;14.50;9.77;;;;;;;;;;732373;189;920961;-62
2022/12/07 04:08:52;;;;;;;13.30;9.10;;;;;;;;;;744123;186;919349;-61
2022/12/07 04:11:18;;;;;;;12.57;9.77;;;;;;;;;;750035;186;1020099;-61
2022/12/07 04:16:16;;;;;;;14.50;10.07;;;;;;;;;;720899;194;918896;-60
2022/12/07 04:18:42;;;;;;;16.40;10.35;;;;;;;;;;732310;190;918801;-64
2022/12/07 04:21:07;;;;;;;16.33;10.70;;;;;;;;;;748845;187;804540;-64
2022/12/07 04:23:33;;;;;;;15.93;10.83;;;;;;;;;;737819;190;916358;-65
2022/12/07 04:25:59;;;;;;;18.35;11.48;;;;;;;;;;736683;190;908313;-61
2022/12/07 04:28:26;;;;;;;17.65;10.38;;;;;;;;;;747989;186;921250;-63
2022/12/07 04:30:51;;;;;;;19.03;13.27;;;;;;;;;;742243;188;919452;-60
2022/12/07 04:33:17;;;;;;;19.37;11.80;;;;;;;;;;730485;190;812356;-61
2022/12/07 04:35:43;;;;;;;14.67;11.00;;;;;;;;;;733458;190;626667;-60
2022/12/07 04:38:09;;;;;;;17.30;11.73;;;;;;;;;;758231;186;625859;-65
2022/12/07 04:40:35;;;;;;;17.60;10.57;;;;;;;;;;745349;185;919292;-64
2022/12/07 04:43:01;;;;;;;19.02;12.90;;;;;;;;;;746828;186;918258;-64
2022/12/07 04:45:26;;;;;;;16.70;11.37;;;;;;;;;;755971;186;649400;-61
2022/12/07 04:47:52;;;;;;;16.47;12.10;;;;;;;;;;735728;186;817819;-60
2022/12/07 04:50:18;;;;;;;16.20;11.10;;;;;;;;;;741949;186;1033190;-61
2022/12/07 04:52:44;;;;;;;13.70;9.40;;;;;;;;;;750380;187;923192;-60
2022/12/07 04:55:10;;;;;;;15.77;9.60;;;;;;;;;;742857;187;1021425;-61
2022/12/07 04:57:36;;;;;;;12.47;9.50;;;;;;;;;;738835;187;920208;-59
2022/12/07 05:00:02;;;;;;;10.87;9.00;;;;;;;;;;747922;186;916788;-64
2022/12/07 05:02:27;;;;;;;13.50;9.13;;;;;;;;;;736285;188;817363;-60
2022/12/07 05:04:53;;;;;;;14.00;9.73;;;;;;;;;;747884;186;919557;-65
2022/12/07 05:07:19;;;;;;;15.40;10.37;;;;;;;;;;739096;187;917807;-63
2022/12/07 05:09:45;;;;;;;13.47;9.03;;;;;;;;;;753273;186;866006;-61
2022/12/07 05:12:11;;;;;;;12.43;8.97;;;;;;;;;;741650;186;1008261;-60
2022/12/07 05:14:37;;;;;;;11.73;8.27;;;;;;;;;;734559;186;917806;-61
2022/12/07 05:17:03;;;;;;;12.33;8.67;;;;;;;;;;743695;186;818321;-60
2022/12/07 05:19:28;;;;;;;12.33;8.63;;;;;;;;;;747187;186;812260;-60
2022/12/07 05:21:54;;;;;;;13.02;8.82;;;;;;;;;;748352;186;918483;-63
2022/12/07 05:24:20;;;;;;;13.00;8.60;;;;;;;;;;733650;186;919158;-61
2022/12/07 05:26:46;;;;;;;13.40;7.50;;;;;;;;;;745533;188;918080;-64
2022/12/07 05:29:12;;;;;;;10.87;7.70;;;;;;;;;;745354;186;915635;-61
2022/12/07 05:31:38;;;;;;;11.90;8.00;;;;;;;;;;753972;186;619441;-61
2022/12/07 05:34:03;;;;;;;11.47;7.63;;;;;;;;;;751394;186;813691;-64
2022/12/07 05:36:31;;;;;;;11.53;6.13;;;;;;;;;;746647;186;919250;-64
2022/12/07 05:38:55;;;;;;;10.90;6.93;;;;;;;;;;745333;187;916742;-59
2022/12/07 05:43:53;;;;;;;11.37;7.30;;;;;;;;;;751010;187;813638;-63
2022/12/07 05:46:18;;;;;;;8.45;6.12;;;;;;;;;;746332;187;809480;-62
2022/12/07 05:48:44;;;;;;;10.50;6.03;;;;;;;;;;738814;186;888667;-61
2022/12/07 05:51:10;;;;;;;8.47;6.30;;;;;;;;;;739055;186;635371;-61
2022/12/07 05:53:36;;;;;;;10.20;6.17;;;;;;;;;;744195;185;939255;-64
2022/12/07 05:56:02;;;;;;;10.37;6.63;;;;;;;;;;746760;185;818916;-64
2022/12/07 06:00:59;;;;;;;14.47;7.80;;;;;;;;;;750569;186;658795;-64
2022/12/07 06:03:25;;;;;;;10.60;7.43;;;;;;;;;;748027;186;625373;-61
2022/12/07 06:05:51;;;;;;;7.00;5.90;;;;;;;;;;745734;186;914605;-64
2022/12/07 06:08:17;;;;;;;8.13;5.90;;;;;;;;;;749375;186;919481;-64
2022/12/07 06:10:43;;;;;;;9.90;6.03;;;;;;;;;;743939;186;914199;-62
2022/12/07 06:13:08;;;;;;;7.77;5.87;;;;;;;;;;748327;186;894046;-62
2022/12/07 06:15:35;;;;;;;8.27;6.00;;;;;;;;;;749673;186;920378;-64
2022/12/07 06:18:01;;;;;;;11.10;6.57;;;;;;;;;;728209;186;919697;-61
2022/12/07 06:20:27;;;;;;;9.43;6.33;;;;;;;;;;743433;186;918684;-60
2022/12/07 06:22:53;;;;;;;6.87;4.90;;;;;;;;;;746732;186;918653;-64
2022/12/07 06:25:18;;;;;;;7.10;5.40;;;;;;;;;;737033;190;920305;-64
2022/12/07 06:27:44;;;;;;;6.63;5.00;;;;;;;;;;736772;186;918699;-64
2022/12/07 06:30:10;;;;;;;5.70;4.70;;;;;;;;;;729598;186;858158;-62
2022/12/07 06:32:36;;;;;;;7.50;5.50;;;;;;;;;;739155;186;817085;-63
2022/12/07 06:35:02;;;;;;;8.83;5.30;;;;;;;;;;753728;186;919124;-64
2022/12/07 06:37:28;;;;;;;6.87;4.67;;;;;;;;;;748158;186;919156;-62
2022/12/07 06:39:54;;;;;;;7.62;5.55;;;;;;;;;;741158;189;919224;-64
2022/12/07 06:42:19;;;;;;;6.23;4.60;;;;;;;;;;736645;186;919230;-64
2022/12/07 06:44:45;;;;;;;6.80;4.40;;;;;;;;;;738657;190;919361;-60
2022/12/07 06:47:11;;;;;;;5.97;3.87;;;;;;;;;;746019;187;761619;-64
2022/12/07 06:49:37;;;;;;;7.80;4.00;;;;;;;;;;739331;186;918769;-64
2022/12/07 06:52:04;;;;;;;10.37;4.50;;;;;;;;;;743771;186;885983;-64
2022/12/07 06:54:30;;;;;;;5.13;3.23;;;;;;;;;;725323;190;907884;-64
2022/12/07 06:56:55;;;;;;;5.20;3.87;;;;;;;;;;736677;189;816381;-64
2022/12/07 06:59:20;;;;;;;5.47;3.93;;;;;;;;;;746413;186;919448;-61
2022/12/07 07:01:46;;;;;;;5.33;3.47;;;;;;;;;;736294;186;918604;-64
2022/12/07 07:04:12;;;;;;;5.30;3.80;;;;;;;;;;730512;189;919032;-60
2022/12/07 07:06:38;;;;;;;5.90;3.57;;;;;;;;;;752425;185;919212;-65
2022/12/07 07:09:04;;;;;;;4.90;3.40;;;;;;;;;;747153;185;915466;-61
2022/12/07 07:11:30;;;;;;;5.93;3.93;;;;;;;;;;754480;187;920226;-61
2022/12/07 07:13:58;;;;;;;7.30;3.93;;;;;;;;;;748620;186;919366;-64
2022/12/07 07:16:22;;;;;;;5.77;3.70;;;;;;;;;;743649;186;918927;-61
2022/12/07 07:18:47;;;;;;;4.67;3.10;;;;;;;;;;740950;186;936592;-60
2022/12/07 07:21:13;;;;;;;6.40;4.03;;;;;;;;;;739567;186;919335;-61
2022/12/07 07:23:39;;;;;;;8.30;3.50;;;;;;;;;;744656;187;917990;-61
2022/12/07 07:26:05;;;;;;;4.73;3.53;;;;;;;;;;744567;187;919498;-62
2022/12/07 07:28:31;;;;;;;6.50;3.30;;;;;;;;;;751972;186;714102;-65
2022/12/07 07:30:57;;;;;;;4.77;3.23;;;;;;;;;;748937;186;928279;-65
2022/12/07 07:33:22;;;;;;;5.40;3.33;;;;;;;;;;749189;187;918556;-64
2022/12/07 07:35:48;;;;;;;5.60;3.42;;;;;;;;;;745275;186;918936;-64
2022/12/07 07:38:14;;;;;;;6.13;2.93;;;;;;;;;;748593;186;913641;-60
2022/12/07 07:40:40;;;;;;;4.63;3.67;;;;;;;;;;740978;186;919505;-62
2022/12/07 07:43:06;;;;;;;4.40;3.20;;;;;;;;;;732601;189;919054;-60
2022/12/07 07:45:32;;;;;;;4.20;3.37;;;;;;;;;;749043;186;816481;-64
2022/12/07 07:47:58;;;;;;;6.03;3.30;;;;;;;;;;746120;186;915030;-65
2022/12/07 07:50:23;;;;;;;6.87;4.93;;;;;;;;;;736234;190;875617;-64
2022/12/07 07:52:49;;;;;;;6.50;4.00;;;;;;;;;;747834;186;925169;-65
2022/12/07 07:55:15;;;;;;;6.50;4.73;;;;;;;;;;746926;186;825624;-64
2022/12/07 07:57:41;;;;;;;7.23;4.80;;;;;;;;;;739799;186;918476;-64
2022/12/07 08:00:08;;;;;;;7.17;5.00;;;;;;;;;;746890;186;921594;-61
2022/12/07 08:02:33;;;;;;;7.13;5.90;;;;;;;;;;739924;188;918494;-60
2022/12/07 08:04:59;;;;;;;8.80;6.30;;;;;;;;;;746385;187;818573;-60
2022/12/07 08:07:25;;;;;;;12.60;7.60;;;;;;;;;;751230;186;814344;-60
2022/12/07 08:09:51;;;;;;;7.53;6.70;;;;;;;;;;746069;186;919022;-60
2022/12/07 08:12:17;;;;;;;8.05;6.03;;;;;;;;;;744806;187;918821;-60
2022/12/07 08:14:42;;;;;;;8.03;5.80;;;;;;;;;;748379;187;916696;-61
2022/12/07 08:17:08;;;;;;;8.90;6.33;;;;;;;;;;754781;186;918923;-61
2022/12/07 08:19:34;;;;;;;11.40;6.60;;;;;;;;;;742845;187;919009;-64
2022/12/07 08:22:00;;;;;;;7.37;5.23;;;;;;;;;;740652;187;924084;-64
2022/12/07 08:24:26;;;;;;;8.83;5.60;;;;;;;;;;757434;186;916157;-61
2022/12/07 08:26:52;;;;;;;7.87;5.90;;;;;;;;;;747390;186;917459;-60
2022/12/07 08:29:18;;;;;;;6.50;5.30;;;;;;;;;;742027;186;919179;-60
2022/12/07 08:31:43;;;;;;;5.35;4.12;;;;;;;;;;735094;189;920374;-61
2022/12/07 08:34:10;;;;;;;7.33;5.13;;;;;;;;;;747997;186;918940;-60
2022/12/07 08:36:36;;;;;;;7.13;4.30;;;;;;;;;;752348;186;919330;-61
2022/12/07 08:39:02;;;;;;;6.50;4.10;;;;;;;;;;744889;186;913250;-64
2022/12/07 08:41:28;;;;;;;6.10;3.97;;;;;;;;;;754192;187;919188;-60
2022/12/07 08:43:53;;;;;;;4.50;3.40;;;;;;;;;;744010;186;919399;-65
2022/12/07 08:46:19;;;;;;;4.93;3.93;;;;;;;;;;748229;188;919484;-61
2022/12/07 08:48:45;;;;;;;6.75;4.00;;;;;;;;;;746307;186;919173;-64
2022/12/07 08:51:11;;;;;;;5.77;3.80;;;;;;;;;;748557;186;919404;-61
2022/12/07 08:53:37;;;;;;;5.00;3.60;;;;;;;;;;744570;187;919476;-60
2022/12/07 08:56:03;;;;;;;5.25;3.42;;;;;;;;;;746225;187;919134;-63
2022/12/07 08:58:29;;;;;;;7.93;4.90;;;;;;;;;;746210;186;919140;-59
2022/12/07 09:00:54;;;;;;;7.73;3.50;;;;;;;;;;745875;186;923449;-64
2022/12/07 09:03:20;;;;;;;6.00;3.53;;;;;;;;;;751701;186;817101;-64
2022/12/07 09:05:47;;;;;;;4.67;3.57;;;;;;;;;;739625;187;918487;-60
2022/12/07 09:08:13;;;;;;;5.90;4.37;;;;;;;;;;738991;188;916699;-60
2022/12/07 09:10:39;;;;;;;4.90;3.77;;;;;;;;;;747328;187;919156;-61
2022/12/07 09:13:04;;;;;;;7.73;4.63;;;;;;;;;;743968;186;817606;-60
2022/12/07 09:15:31;;;;;;;6.10;3.80;;;;;;;;;;749719;186;919579;-60
2022/12/07 09:17:56;;;;;;;5.50;4.00;;;;;;;;;;742670;186;919493;-60
2022/12/07 09:20:22;;;;;;;6.90;5.03;;;;;;;;;;748531;186;919015;-60
2022/12/07 09:22:48;;;;;;;6.30;4.57;;;;;;;;;;739323;186;920288;-63
2022/12/07 09:25:14;;;;;;;7.90;4.72;;;;;;;;;;744246;187;921608;-65
2022/12/07 09:27:40;;;;;;;5.80;4.77;;;;;;;;;;733974;189;919021;-64
2022/12/07 09:30:06;;;;;;;6.27;4.87;;;;;;;;;;746649;185;919303;-63
2022/12/07 09:32:32;;;;;;;8.10;5.30;;;;;;;;;;741869;186;918173;-62
2022/12/07 09:34:58;;;;;;;7.40;5.60;;;;;;;;;;747231;185;909330;-60
2022/12/07 09:37:24;;;;;;;7.07;5.07;;;;;;;;;;755126;186;897985;-64
2022/12/07 09:39:49;;;;;;;7.77;5.27;;;;;;;;;;751938;186;918901;-63
2022/12/07 09:42:30;;;;;;;10.00;5.85;;;;;;;;;;745652;186;881142;-60
2022/12/07 09:44:56;;;;;;;7.40;5.13;;;;;;;;;;743651;186;918980;-63
2022/12/07 09:47:22;;;;;;;9.43;6.00;;;;;;;;;;743796;186;817052;-63
2022/12/07 09:49:48;;;;;;;8.20;6.10;;;;;;;;;;730020;190;834983;-60
2022/12/07 09:52:18;;;;;;;5.97;5.30;;;;;;;;;;714699;194;913541;-60
2022/12/07 09:54:45;;;;;;;7.30;5.70;;;;;;;;;;729433;190;917853;-63
2022/12/07 09:57:10;;;;;;;8.50;6.13;;;;;;;;;;731387;191;908619;-61
2022/12/07 09:59:36;;;;;;;8.90;6.27;;;;;;;;;;741161;186;923664;-61
2022/12/07 10:02:02;;;;;;;10.70;6.70;;;;;;;;;;741906;187;843810;-63
2022/12/07 10:04:29;;;;;;;8.07;7.20;;;;;;;;;;744626;186;919746;-60
2022/12/07 10:06:54;;;;;;;10.25;6.55;;;;;;;;;;747923;186;919279;-63
2022/12/07 10:09:20;;;;;;;7.97;5.70;;;;;;;;;;748019;186;815968;-59
2022/12/07 10:11:51;;;;;;;7.03;6.00;;;;;;;;;;756203;186;708495;-60
2022/12/07 10:14:17;;;;;;;8.30;6.07;;;;;;;;;;740307;186;916450;-63
2022/12/07 10:16:43;;;;;;;7.20;5.60;;;;;;;;;;740695;187;919643;-65
2022/12/07 10:19:20;;;;;;;8.80;6.23;;;;;;;;;;733046;188;893694;-63
2022/12/07 10:22:04;;;;;;;10.73;7.90;;;;;;;;;;748347;186;809785;-60
2022/12/07 10:24:30;;;;;;;10.20;7.63;;;;;;;;;;736788;186;918590;-59
2022/12/07 10:26:56;;;;;;;9.77;7.23;;;;;;;;;;736577;187;919311;-59
2022/12/07 10:29:22;;;;;;;8.80;6.80;;;;;;;;;;723215;193;914730;-62
2022/12/07 10:31:53;;;;;;;11.00;7.50;;;;;;;;;;757132;186;637856;-58
2022/12/07 10:34:23;;;;;;;10.00;8.63;;;;;;;;;;742335;187;916999;-62
2022/12/07 10:36:48;;;;;;;9.90;7.60;;;;;;;;;;741788;187;820334;-62
2022/12/07 10:39:14;;;;;;;11.03;7.70;;;;;;;;;;741224;186;919225;-58
2022/12/07 10:41:46;;;;;;;8.63;5.83;;;;;;;;;;731241;189;917950;-58
2022/12/07 10:44:12;;;;;;;9.27;6.50;;;;;;;;;;748365;185;920702;-62
2022/12/07 10:46:38;;;;;;;9.98;6.15;;;;;;;;;;741628;186;919190;-59
2022/12/07 10:49:04;;;;;;;11.23;8.03;;;;;;;;;;743567;186;917821;-59
2022/12/07 10:51:33;;;;;;;9.98;7.03;;;;;;;;;;742544;186;919507;-62
2022/12/07 10:53:59;;;;;;;10.60;7.17;;;;;;;;;;741128;187;919152;-60
2022/12/07 10:56:27;;;;;;;9.50;7.33;;;;;;;;;;745429;187;916923;-62
2022/12/07 10:58:58;;;;;;;8.13;6.90;;;;;;;;;;731955;187;917751;-59
2022/12/07 11:01:24;;;;;;;10.23;7.53;;;;;;;;;;749431;187;921433;-62
2022/12/07 11:03:54;;;;;;;10.23;7.40;;;;;;;;;;749091;186;921521;-59
2022/12/07 11:06:21;;;;;;;10.70;7.23;;;;;;;;;;736931;187;919071;-63
2022/12/07 11:08:48;;;;;;;7.50;5.90;;;;;;;;;;744063;187;826528;-61
2022/12/07 11:11:15;;;;;;;8.67;7.73;;;;;;;;;;741695;187;912953;-61
2022/12/07 11:13:47;;;;;;;10.97;8.30;;;;;;;;;;742232;186;916262;-61
2022/12/07 11:16:14;;;;;;;10.20;7.20;;;;;;;;;;742974;187;919260;-59
2022/12/07 11:18:52;;;;;;;10.40;7.50;;;;;;;;;;746176;187;917737;-62
2022/12/07 11:21:25;;;;;;;9.90;7.10;;;;;;;;;;740300;186;919101;-63
2022/12/07 11:23:52;;;;;;;11.63;8.53;;;;;;;;;;753997;187;918985;-59
2022/12/07 11:26:17;;;;;;;12.23;8.32;;;;;;;;;;740586;186;920174;-58
2022/12/07 11:28:46;;;;;;;13.23;9.17;;;;;;;;;;733479;187;918962;-60
2022/12/07 11:31:17;;;;;;;11.20;7.55;;;;;;;;;;750209;187;916940;-63
2022/12/07 11:33:44;;;;;;;12.30;8.90;;;;;;;;;;744183;187;909669;-59
2022/12/07 11:36:15;;;;;;;12.00;8.30;;;;;;;;;;749574;186;835922;-58
2022/12/07 11:38:43;;;;;;;14.77;8.67;;;;;;;;;;719209;194;918775;-61
2022/12/07 11:41:13;;;;;;;11.10;8.80;;;;;;;;;;751055;186;919530;-59
2022/12/07 11:43:41;;;;;;;10.47;7.70;;;;;;;;;;741266;188;940670;-63
2022/12/07 11:46:10;;;;;;;15.53;9.17;;;;;;;;;;738101;187;919118;-61
2022/12/07 11:48:39;;;;;;;9.47;8.10;;;;;;;;;;750124;186;921233;-59
2022/12/07 11:51:04;;;;;;;10.07;6.87;;;;;;;;;;747580;185;1024177;-61
2022/12/07 11:53:31;;;;;;;9.23;6.97;;;;;;;;;;739411;189;919827;-60
2022/12/07 11:55:58;;;;;;;9.13;6.63;;;;;;;;;;732790;187;819650;-59
2022/12/07 11:58:27;;;;;;;7.90;6.47;;;;;;;;;;717030;193;918947;-61
2022/12/07 12:00:53;;;;;;;7.70;6.20;;;;;;;;;;743867;186;813770;-62
2022/12/07 12:03:24;;;;;;;8.75;5.85;;;;;;;;;;735412;188;919121;-59
2022/12/07 12:05:50;;;;;;;9.53;6.03;;;;;;;;;;741482;186;907901;-59
2022/12/07 12:08:16;;;;;;;6.60;4.70;;;;;;;;;;747212;186;915714;-59
2022/12/07 12:10:43;;;;;;;7.17;4.43;;;;;;;;;;747683;186;920107;-59
2022/12/07 12:13:11;;;;;;;7.70;4.50;;;;;;;;;;725211;190;918233;-59
2022/12/07 12:15:38;;;;;;;7.17;5.23;;;;;;;;;;733916;189;919393;-62
2022/12/07 12:18:11;;;;;;;9.32;5.60;;;;;;;;;;748866;186;919607;-60
2022/12/07 12:20:42;;;;;;;9.03;5.40;;;;;;;;;;734215;190;818058;-58
2022/12/07 12:23:13;;;;;;;7.30;4.73;;;;;;;;;;738828;187;918658;-61
2022/12/07 12:25:43;;;;;;;7.57;5.40;;;;;;;;;;746199;186;919602;-59
2022/12/07 12:28:09;;;;;;;7.67;4.93;;;;;;;;;;740271;187;920294;-61
2022/12/07 12:30:35;;;;;;;7.60;4.70;;;;;;;;;;751280;186;919528;-61
2022/12/07 12:33:01;;;;;;;7.07;4.20;;;;;;;;;;749989;187;816891;-61
2022/12/07 12:35:30;;;;;;;5.80;4.23;;;;;;;;;;747331;187;911577;-59
2022/12/07 12:37:55;;;;;;;6.45;4.43;;;;;;;;;;742666;187;896020;-60
2022/12/07 12:40:36;;;;;;;7.93;4.90;;;;;;;;;;729768;191;920091;-59
2022/12/07 12:43:01;;;;;;;7.00;4.57;;;;;;;;;;745761;187;919285;-61
2022/12/07 12:45:30;;;;;;;9.00;4.80;;;;;;;;;;743068;186;918730;-59
2022/12/07 12:48:00;;;;;;;6.77;4.00;;;;;;;;;;720300;193;963782;-59
2022/12/07 12:50:27;;;;;;;7.23;4.37;;;;;;;;;;753601;186;865093;-60
2022/12/07 12:52:54;;;;;;;5.00;4.00;;;;;;;;;;748816;186;941435;-61
2022/12/07 12:55:20;;;;;;;6.10;3.87;;;;;;;;;;722902;191;919068;-59
2022/12/07 12:57:46;;;;;;;5.80;4.43;;;;;;;;;;738518;187;919125;-60
2022/12/07 13:00:16;;;;;;;5.27;3.80;;;;;;;;;;755642;185;919409;-61
2022/12/07 13:02:47;;;;;;;6.37;4.40;;;;;;;;;;747049;186;919122;-59
2022/12/07 13:05:16;;;;;;;8.47;4.93;;;;;;;;;;737343;187;919377;-58
2022/12/07 13:07:54;;;;;;;6.93;4.30;;;;;;;;;;733225;190;919817;-59
2022/12/07 13:10:22;;;;;;;8.20;5.37;;;;;;;;;;752739;183;915062;-59
2022/12/07 13:12:54;;;;;;;9.13;5.33;;;;;;;;;;747106;186;816833;-59
2022/12/07 13:15:26;;;;;;;7.30;5.10;;;;;;;;;;746207;186;919353;-59
2022/12/07 13:17:54;;;;;;;7.90;5.33;;;;;;;;;;745929;185;813698;-62
2022/12/07 13:20:26;;;;;;;7.17;5.40;;;;;;;;;;747077;186;915795;-61
2022/12/07 13:22:52;;;;;;;7.50;5.13;;;;;;;;;;750234;186;918581;-59
2022/12/07 13:25:20;;;;;;;11.10;5.93;;;;;;;;;;745942;186;927360;-61
2022/12/07 13:27:46;;;;;;;11.57;6.20;;;;;;;;;;741285;186;918736;-61
2022/12/07 13:30:12;;;;;;;10.43;5.15;;;;;;;;;;746244;186;918642;-58
2022/12/07 13:32:38;;;;;;;6.90;4.73;;;;;;;;;;746049;186;918564;-61
2022/12/07 13:35:04;;;;;;;7.27;5.27;;;;;;;;;;748251;186;911441;-58
2022/12/07 13:37:29;;;;;;;9.03;5.70;;;;;;;;;;738787;189;821517;-61
2022/12/07 13:39:56;;;;;;;8.67;6.20;;;;;;;;;;750692;186;918006;-61
2022/12/07 13:42:27;;;;;;;12.80;7.33;;;;;;;;;;747078;186;919334;-59
2022/12/07 13:44:53;;;;;;;10.23;7.53;;;;;;;;;;743741;187;817066;-59
2022/12/07 13:47:19;;;;;;;10.43;6.80;;;;;;;;;;746525;187;915246;-62
2022/12/07 13:49:46;;;;;;;10.53;6.20;;;;;;;;;;737183;187;961232;-61
2022/12/07 13:52:15;;;;;;;6.93;5.22;;;;;;;;;;750757;187;918918;-59
2022/12/07 13:54:44;;;;;;;10.23;6.30;;;;;;;;;;735921;187;1021498;-59
2022/12/07 13:57:09;;;;;;;8.20;6.28;;;;;;;;;;743578;186;918247;-61
2022/12/07 13:59:37;;;;;;;10.13;5.93;;;;;;;;;;740799;187;919814;-58
2022/12/07 14:02:02;;;;;;;10.88;6.35;;;;;;;;;;744077;186;918533;-59
2022/12/07 14:04:29;;;;;;;8.50;5.70;;;;;;;;;;752105;186;920884;-61
2022/12/07 14:06:55;;;;;;;9.57;4.87;;;;;;;;;;733836;190;919457;-59
2022/12/07 14:09:22;;;;;;;7.90;3.90;;;;;;;;;;746528;187;918440;-63
2022/12/07 14:11:47;;;;;;;6.70;4.30;;;;;;;;;;738770;186;918911;-58
2022/12/07 14:14:14;;;;;;;6.87;4.10;;;;;;;;;;741925;186;943743;-58
2022/12/07 14:16:41;;;;;;;8.00;4.50;;;;;;;;;;736130;186;921197;-58
2022/12/07 14:19:06;;;;;;;7.93;5.60;;;;;;;;;;731783;190;918999;-58
2022/12/07 14:21:32;;;;;;;7.37;5.50;;;;;;;;;;748853;185;918974;-59
2022/12/07 14:24:03;;;;;;;7.87;5.70;;;;;;;;;;747484;186;918680;-58